DLH weather

Duluth International Airport
Duluth, Minnesota, United States

Public forecast

Using degrees Fahrenheit for public forecast. Weather courtesy of forecast.io.

Current aviation weather report (METAR) for Duluth International Airport

Retrieved 2019/10/23 07:55 UTC (51 minutes ago):

KDLH 230755Z 29017G25KT 10SM BKN015 OVC022 03/M01 A2956 RMK AO2 DZB39E53SNB03E39 SLP024 P0000 T00331006

Aviation forecast (TAF) for Duluth International Airport

Retrieved 2019/10/23 06:27 UTC (2 hours ago):

TAF KDLH 230525Z 2306/2406 29013G23KT 6SM -DZ OVC009 FM230900 29010G20KT P6SM OVC015 FM232100 30009G16KT P6SM OVC020